Main page
METAR-TAF:

METAR-TAF

Airports :

Manihiki Island Airport

Manihiki, Cook Islands

latitude: 10-22-50S, longitude: 160-59-59W, elevation: 2 m

Current weather observation

The report was made 3 hours and 19 minutes ago, at 11:00 UTC
Wind 4 kt from the Southeast
Temperature 29°C
Humidity 79%
Pressure 1012 hPa

METAR: NCMH 171100Z AUTO 13004KT //// ////// 29/25 Q1012

Time: 04:19 (14:19 UTC)


TAF: missing

Weather observations and forecasts of more than 4000 airports (METAR and TAF reports).

The available stations are represented by yellow and red dots on the map.

Hover mouse over dot to see the name of the station.

Then click to see weather observations and forecasts.

To change the map : click on the green buttons with a black cross to zoom in, on the green button with a dash to zoom out, or on the green arrows for adjacent maps.


METAR-TAF: